sensor_id;sensor_type;location;lat;lon;timestamp;P1;durP1;ratioP1;P2;durP2;ratioP2
31438;SDS011;18062;48.872;9.220;2023-09-19T00:00:19;1.53;;;0.90;;
31438;SDS011;18062;48.872;9.220;2023-09-19T00:02:55;0.93;;;0.87;;
31438;SDS011;18062;48.872;9.220;2023-09-19T00:05:24;0.60;;;0.60;;
31438;SDS011;18062;48.872;9.220;2023-09-19T00:07:53;1.10;;;0.93;;
31438;SDS011;18062;48.872;9.220;2023-09-19T00:10:22;0.80;;;0.80;;
31438;SDS011;18062;48.872;9.220;2023-09-19T00:12:54;1.17;;;0.87;;
31438;SDS011;18062;48.872;9.220;2023-09-19T00:15:23;0.80;;;0.80;;
31438;SDS011;18062;48.872;9.220;2023-09-19T00:17:49;0.87;;;0.80;;
31438;SDS011;18062;48.872;9.220;2023-09-19T00:20:20;1.00;;;0.83;;
31438;SDS011;18062;48.872;9.220;2023-09-19T00:22:48;0.73;;;0.73;;
31438;SDS011;18062;48.872;9.220;2023-09-19T00:25:18;0.60;;;0.60;;
31438;SDS011;18062;48.872;9.220;2023-09-19T00:27:45;1.03;;;0.77;;
31438;SDS011;18062;48.872;9.220;2023-09-19T00:30:13;1.33;;;0.80;;
31438;SDS011;18062;48.872;9.220;2023-09-19T00:32:41;1.30;;;0.80;;
31438;SDS011;18062;48.872;9.220;2023-09-19T00:35:07;0.83;;;0.83;;
31438;SDS011;18062;48.872;9.220;2023-09-19T00:37:34;0.83;;;0.80;;
31438;SDS011;18062;48.872;9.220;2023-09-19T00:40:01;1.13;;;0.77;;
31438;SDS011;18062;48.872;9.220;2023-09-19T00:42:27;0.70;;;0.70;;
31438;SDS011;18062;48.872;9.220;2023-09-19T00:44:53;0.97;;;0.77;;
31438;SDS011;18062;48.872;9.220;2023-09-19T00:47:19;0.93;;;0.63;;
31438;SDS011;18062;48.872;9.220;2023-09-19T00:49:46;0.80;;;0.80;;
31438;SDS011;18062;48.872;9.220;2023-09-19T00:52:15;2.10;;;0.80;;
31438;SDS011;18062;48.872;9.220;2023-09-19T00:54:45;0.70;;;0.70;;
31438;SDS011;18062;48.872;9.220;2023-09-19T00:57:12;2.27;;;0.90;;
31438;SDS011;18062;48.872;9.220;2023-09-19T00:59:39;1.50;;;0.90;;
31438;SDS011;18062;48.872;9.220;2023-09-19T01:02:06;0.70;;;0.70;;
31438;SDS011;18062;48.872;9.220;2023-09-19T01:04:33;1.00;;;0.90;;
31438;SDS011;18062;48.872;9.220;2023-09-19T01:06:59;1.40;;;0.90;;
31438;SDS011;18062;48.872;9.220;2023-09-19T01:09:25;1.27;;;0.73;;
31438;SDS011;18062;48.872;9.220;2023-09-19T01:11:52;0.63;;;0.63;;
31438;SDS011;18062;48.872;9.220;2023-09-19T01:17:14;1.00;;;0.90;;
31438;SDS011;18062;48.872;9.220;2023-09-19T01:24:58;0.50;;;0.50;;
31438;SDS011;18062;48.872;9.220;2023-09-19T01:30:14;0.87;;;0.87;;
31438;SDS011;18062;48.872;9.220;2023-09-19T01:32:42;2.63;;;1.00;;
31438;SDS011;18062;48.872;9.220;2023-09-19T01:35:09;0.70;;;0.70;;
31438;SDS011;18062;48.872;9.220;2023-09-19T01:37:38;1.90;;;0.60;;
31438;SDS011;18062;48.872;9.220;2023-09-19T01:40:07;4.50;;;0.80;;
31438;SDS011;18062;48.872;9.220;2023-09-19T01:42:49;0.77;;;0.63;;
31438;SDS011;18062;48.872;9.220;2023-09-19T01:47:53;0.93;;;0.70;;
31438;SDS011;18062;48.872;9.220;2023-09-19T01:50:42;0.50;;;0.50;;
31438;SDS011;18062;48.872;9.220;2023-09-19T01:53:10;0.53;;;0.53;;
31438;SDS011;18062;48.872;9.220;2023-09-19T01:55:41;0.70;;;0.70;;
31438;SDS011;18062;48.872;9.220;2023-09-19T02:00:53;1.73;;;0.90;;
31438;SDS011;18062;48.872;9.220;2023-09-19T02:03:21;0.60;;;0.60;;
31438;SDS011;18062;48.872;9.220;2023-09-19T02:05:51;2.30;;;0.70;;
31438;SDS011;18062;48.872;9.220;2023-09-19T02:08:19;2.70;;;0.90;;
31438;SDS011;18062;48.872;9.220;2023-09-19T02:10:45;0.93;;;0.70;;
31438;SDS011;18062;48.872;9.220;2023-09-19T02:13:23;1.10;;;0.90;;
31438;SDS011;18062;48.872;9.220;2023-09-19T02:15:52;1.00;;;0.90;;
31438;SDS011;18062;48.872;9.220;2023-09-19T02:18:18;0.97;;;0.70;;
31438;SDS011;18062;48.872;9.220;2023-09-19T02:20:45;1.07;;;0.70;;
31438;SDS011;18062;48.872;9.220;2023-09-19T02:23:11;0.70;;;0.70;;
31438;SDS011;18062;48.872;9.220;2023-09-19T02:25:38;0.80;;;0.80;;
31438;SDS011;18062;48.872;9.220;2023-09-19T02:28:05;1.03;;;0.93;;
31438;SDS011;18062;48.872;9.220;2023-09-19T02:30:31;0.83;;;0.70;;
31438;SDS011;18062;48.872;9.220;2023-09-19T02:32:58;0.93;;;0.70;;
31438;SDS011;18062;48.872;9.220;2023-09-19T02:35:26;0.70;;;0.70;;
31438;SDS011;18062;48.872;9.220;2023-09-19T02:37:53;0.73;;;0.73;;
31438;SDS011;18062;48.872;9.220;2023-09-19T02:40:19;1.37;;;0.67;;
31438;SDS011;18062;48.872;9.220;2023-09-19T02:42:48;0.83;;;0.80;;
31438;SDS011;18062;48.872;9.220;2023-09-19T02:45:18;0.93;;;0.80;;
31438;SDS011;18062;48.872;9.220;2023-09-19T02:47:44;0.87;;;0.80;;
31438;SDS011;18062;48.872;9.220;2023-09-19T02:50:11;0.63;;;0.63;;
31438;SDS011;18062;48.872;9.220;2023-09-19T02:52:38;0.77;;;0.70;;
31438;SDS011;18062;48.872;9.220;2023-09-19T02:55:04;1.27;;;0.70;;
31438;SDS011;18062;48.872;9.220;2023-09-19T02:57:34;0.73;;;0.73;;
31438;SDS011;18062;48.872;9.220;2023-09-19T03:00:00;0.70;;;0.70;;
31438;SDS011;18062;48.872;9.220;2023-09-19T03:02:27;1.63;;;0.90;;
31438;SDS011;18062;48.872;9.220;2023-09-19T03:04:54;1.23;;;0.70;;
31438;SDS011;18062;48.872;9.220;2023-09-19T03:07:21;0.73;;;0.70;;
31438;SDS011;18062;48.872;9.220;2023-09-19T03:09:47;0.87;;;0.60;;
31438;SDS011;18062;48.872;9.220;2023-09-19T03:12:14;0.70;;;0.70;;
31438;SDS011;18062;48.872;9.220;2023-09-19T03:14:40;0.70;;;0.70;;
31438;SDS011;18062;48.872;9.220;2023-09-19T03:17:06;0.70;;;0.60;;
31438;SDS011;18062;48.872;9.220;2023-09-19T03:19:34;0.90;;;0.90;;
31438;SDS011;18062;48.872;9.220;2023-09-19T03:22:00;0.90;;;0.83;;
31438;SDS011;18062;48.872;9.220;2023-09-19T03:24:27;0.60;;;0.60;;
31438;SDS011;18062;48.872;9.220;2023-09-19T03:26:54;1.67;;;0.77;;
31438;SDS011;18062;48.872;9.220;2023-09-19T03:29:20;0.67;;;0.57;;
31438;SDS011;18062;48.872;9.220;2023-09-19T03:31:47;0.70;;;0.70;;
31438;SDS011;18062;48.872;9.220;2023-09-19T03:34:13;0.93;;;0.90;;
31438;SDS011;18062;48.872;9.220;2023-09-19T03:36:39;0.87;;;0.80;;
31438;SDS011;18062;48.872;9.220;2023-09-19T03:39:06;0.57;;;0.57;;
31438;SDS011;18062;48.872;9.220;2023-09-19T03:41:32;1.33;;;0.90;;
31438;SDS011;18062;48.872;9.220;2023-09-19T03:44:01;0.73;;;0.73;;
31438;SDS011;18062;48.872;9.220;2023-09-19T03:46:27;1.87;;;0.80;;
31438;SDS011;18062;48.872;9.220;2023-09-19T03:48:55;0.70;;;0.70;;
31438;SDS011;18062;48.872;9.220;2023-09-19T03:51:21;0.87;;;0.80;;
31438;SDS011;18062;48.872;9.220;2023-09-19T03:53:47;1.17;;;0.80;;
31438;SDS011;18062;48.872;9.220;2023-09-19T03:56:15;1.73;;;0.90;;
31438;SDS011;18062;48.872;9.220;2023-09-19T03:58:41;0.87;;;0.87;;
31438;SDS011;18062;48.872;9.220;2023-09-19T04:01:07;1.07;;;0.90;;
31438;SDS011;18062;48.872;9.220;2023-09-19T04:03:33;1.27;;;0.90;;
31438;SDS011;18062;48.872;9.220;2023-09-19T04:06:10;1.00;;;0.80;;
31438;SDS011;18062;48.872;9.220;2023-09-19T04:08:37;0.70;;;0.70;;
31438;SDS011;18062;48.872;9.220;2023-09-19T04:11:03;2.33;;;0.97;;
31438;SDS011;18062;48.872;9.220;2023-09-19T04:13:29;0.97;;;0.87;;
31438;SDS011;18062;48.872;9.220;2023-09-19T04:15:55;0.83;;;0.83;;
31438;SDS011;18062;48.872;9.220;2023-09-19T04:18:21;1.40;;;0.90;;
31438;SDS011;18062;48.872;9.220;2023-09-19T04:20:51;1.20;;;1.03;;
31438;SDS011;18062;48.872;9.220;2023-09-19T04:23:17;0.80;;;0.80;;
31438;SDS011;18062;48.872;9.220;2023-09-19T04:25:46;1.10;;;1.00;;
31438;SDS011;18062;48.872;9.220;2023-09-19T04:28:13;1.30;;;1.00;;
31438;SDS011;18062;48.872;9.220;2023-09-19T04:30:40;0.90;;;0.90;;
31438;SDS011;18062;48.872;9.220;2023-09-19T04:33:06;0.80;;;0.80;;
31438;SDS011;18062;48.872;9.220;2023-09-19T04:35:33;1.23;;;1.00;;
31438;SDS011;18062;48.872;9.220;2023-09-19T04:38:00;1.77;;;1.00;;
31438;SDS011;18062;48.872;9.220;2023-09-19T04:40:28;1.20;;;1.00;;
31438;SDS011;18062;48.872;9.220;2023-09-19T04:42:54;1.13;;;1.00;;
31438;SDS011;18062;48.872;9.220;2023-09-19T04:45:24;1.53;;;1.00;;
31438;SDS011;18062;48.872;9.220;2023-09-19T04:47:51;1.53;;;0.90;;
31438;SDS011;18062;48.872;9.220;2023-09-19T04:50:17;0.90;;;0.80;;
31438;SDS011;18062;48.872;9.220;2023-09-19T04:52:44;1.07;;;0.97;;
31438;SDS011;18062;48.872;9.220;2023-09-19T04:55:13;0.90;;;0.90;;
31438;SDS011;18062;48.872;9.220;2023-09-19T04:57:47;1.03;;;1.00;;
31438;SDS011;18062;48.872;9.220;2023-09-19T05:00:13;0.87;;;0.87;;
31438;SDS011;18062;48.872;9.220;2023-09-19T05:02:40;1.10;;;1.00;;
31438;SDS011;18062;48.872;9.220;2023-09-19T05:05:07;1.03;;;0.97;;
31438;SDS011;18062;48.872;9.220;2023-09-19T05:07:35;1.97;;;1.00;;
31438;SDS011;18062;48.872;9.220;2023-09-19T05:10:01;1.00;;;0.90;;
31438;SDS011;18062;48.872;9.220;2023-09-19T05:12:30;1.13;;;1.03;;
31438;SDS011;18062;48.872;9.220;2023-09-19T05:14:56;1.20;;;1.00;;
31438;SDS011;18062;48.872;9.220;2023-09-19T05:17:22;1.57;;;1.40;;
31438;SDS011;18062;48.872;9.220;2023-09-19T05:19:49;1.23;;;1.07;;
31438;SDS011;18062;48.872;9.220;2023-09-19T05:22:15;1.63;;;1.00;;
31438;SDS011;18062;48.872;9.220;2023-09-19T05:24:43;1.07;;;1.07;;
31438;SDS011;18062;48.872;9.220;2023-09-19T05:27:13;1.77;;;1.17;;
31438;SDS011;18062;48.872;9.220;2023-09-19T05:29:39;1.07;;;0.97;;
31438;SDS011;18062;48.872;9.220;2023-09-19T05:32:06;1.23;;;0.97;;
31438;SDS011;18062;48.872;9.220;2023-09-19T05:34:32;2.60;;;1.13;;
31438;SDS011;18062;48.872;9.220;2023-09-19T05:36:58;2.57;;;1.40;;
31438;SDS011;18062;48.872;9.220;2023-09-19T05:39:24;1.20;;;1.00;;
31438;SDS011;18062;48.872;9.220;2023-09-19T05:41:51;1.17;;;1.07;;
31438;SDS011;18062;48.872;9.220;2023-09-19T05:44:17;2.63;;;1.20;;
31438;SDS011;18062;48.872;9.220;2023-09-19T05:46:43;1.23;;;1.00;;
31438;SDS011;18062;48.872;9.220;2023-09-19T05:49:11;2.20;;;1.20;;
31438;SDS011;18062;48.872;9.220;2023-09-19T05:51:37;1.23;;;1.13;;
31438;SDS011;18062;48.872;9.220;2023-09-19T05:54:03;1.37;;;1.20;;
31438;SDS011;18062;48.872;9.220;2023-09-19T05:56:30;2.83;;;1.03;;
31438;SDS011;18062;48.872;9.220;2023-09-19T05:58:56;1.67;;;1.40;;
31438;SDS011;18062;48.872;9.220;2023-09-19T06:01:22;1.47;;;1.20;;
31438;SDS011;18062;48.872;9.220;2023-09-19T06:03:48;1.10;;;1.00;;
31438;SDS011;18062;48.872;9.220;2023-09-19T06:06:14;2.13;;;1.30;;
31438;SDS011;18062;48.872;9.220;2023-09-19T06:08:40;2.27;;;1.60;;
31438;SDS011;18062;48.872;9.220;2023-09-19T06:11:09;1.77;;;1.40;;
31438;SDS011;18062;48.872;9.220;2023-09-19T06:13:36;3.53;;;1.37;;
31438;SDS011;18062;48.872;9.220;2023-09-19T06:16:04;2.97;;;1.60;;
31438;SDS011;18062;48.872;9.220;2023-09-19T06:18:33;2.47;;;1.50;;
31438;SDS011;18062;48.872;9.220;2023-09-19T06:20:59;1.70;;;1.50;;
31438;SDS011;18062;48.872;9.220;2023-09-19T06:23:25;1.43;;;1.33;;
31438;SDS011;18062;48.872;9.220;2023-09-19T06:25:54;4.50;;;1.70;;
31438;SDS011;18062;48.872;9.220;2023-09-19T06:28:20;2.50;;;1.30;;
31438;SDS011;18062;48.872;9.220;2023-09-19T06:30:50;3.87;;;1.60;;
31438;SDS011;18062;48.872;9.220;2023-09-19T06:33:16;2.53;;;1.40;;
31438;SDS011;18062;48.872;9.220;2023-09-19T06:35:45;2.07;;;1.40;;
31438;SDS011;18062;48.872;9.220;2023-09-19T06:38:12;3.03;;;1.50;;
31438;SDS011;18062;48.872;9.220;2023-09-19T06:40:40;1.93;;;1.40;;
31438;SDS011;18062;48.872;9.220;2023-09-19T06:43:07;3.80;;;1.43;;
31438;SDS011;18062;48.872;9.220;2023-09-19T06:45:35;2.27;;;1.50;;
31438;SDS011;18062;48.872;9.220;2023-09-19T06:48:01;2.27;;;1.50;;
31438;SDS011;18062;48.872;9.220;2023-09-19T06:50:28;2.90;;;1.50;;
31438;SDS011;18062;48.872;9.220;2023-09-19T06:52:55;3.23;;;1.73;;
31438;SDS011;18062;48.872;9.220;2023-09-19T06:55:24;1.43;;;1.33;;
31438;SDS011;18062;48.872;9.220;2023-09-19T06:57:53;2.30;;;1.43;;
31438;SDS011;18062;48.872;9.220;2023-09-19T07:00:23;1.87;;;1.40;;
31438;SDS011;18062;48.872;9.220;2023-09-19T07:02:58;3.03;;;1.57;;
31438;SDS011;18062;48.872;9.220;2023-09-19T07:05:26;1.50;;;1.40;;
31438;SDS011;18062;48.872;9.220;2023-09-19T07:07:52;1.73;;;1.50;;
31438;SDS011;18062;48.872;9.220;2023-09-19T07:10:23;1.53;;;1.43;;
31438;SDS011;18062;48.872;9.220;2023-09-19T07:12:57;2.10;;;1.20;;
31438;SDS011;18062;48.872;9.220;2023-09-19T07:15:23;1.50;;;1.40;;
31438;SDS011;18062;48.872;9.220;2023-09-19T07:17:50;1.40;;;1.30;;
31438;SDS011;18062;48.872;9.220;2023-09-19T07:20:17;1.83;;;1.27;;
31438;SDS011;18062;48.872;9.220;2023-09-19T07:22:44;2.70;;;1.60;;
31438;SDS011;18062;48.872;9.220;2023-09-19T07:25:10;3.43;;;1.50;;
31438;SDS011;18062;48.872;9.220;2023-09-19T07:27:35;3.03;;;1.50;;
31438;SDS011;18062;48.872;9.220;2023-09-19T07:30:01;2.30;;;1.53;;
31438;SDS011;18062;48.872;9.220;2023-09-19T07:32:28;2.03;;;1.43;;
31438;SDS011;18062;48.872;9.220;2023-09-19T07:34:54;2.50;;;1.57;;
31438;SDS011;18062;48.872;9.220;2023-09-19T07:37:20;2.77;;;1.77;;
31438;SDS011;18062;48.872;9.220;2023-09-19T07:39:46;2.70;;;1.40;;
31438;SDS011;18062;48.872;9.220;2023-09-19T07:42:12;2.23;;;1.40;;
31438;SDS011;18062;48.872;9.220;2023-09-19T07:44:43;2.33;;;1.33;;
31438;SDS011;18062;48.872;9.220;2023-09-19T07:47:13;2.77;;;1.70;;
31438;SDS011;18062;48.872;9.220;2023-09-19T07:49:39;2.67;;;1.27;;
31438;SDS011;18062;48.872;9.220;2023-09-19T07:52:07;2.10;;;1.20;;
31438;SDS011;18062;48.872;9.220;2023-09-19T07:54:33;2.73;;;1.43;;
31438;SDS011;18062;48.872;9.220;2023-09-19T07:57:01;2.00;;;1.43;;
31438;SDS011;18062;48.872;9.220;2023-09-19T07:59:27;1.20;;;1.10;;
31438;SDS011;18062;48.872;9.220;2023-09-19T08:01:53;1.80;;;1.20;;
31438;SDS011;18062;48.872;9.220;2023-09-19T08:04:19;1.43;;;1.27;;
31438;SDS011;18062;48.872;9.220;2023-09-19T08:06:45;2.00;;;1.50;;
31438;SDS011;18062;48.872;9.220;2023-09-19T08:09:11;2.27;;;1.20;;
31438;SDS011;18062;48.872;9.220;2023-09-19T08:11:42;2.10;;;1.33;;
31438;SDS011;18062;48.872;9.220;2023-09-19T08:14:08;1.83;;;1.13;;
31438;SDS011;18062;48.872;9.220;2023-09-19T08:16:39;2.33;;;1.20;;
31438;SDS011;18062;48.872;9.220;2023-09-19T08:19:05;3.10;;;1.30;;
31438;SDS011;18062;48.872;9.220;2023-09-19T08:21:31;2.70;;;1.13;;
31438;SDS011;18062;48.872;9.220;2023-09-19T08:23:57;1.93;;;1.30;;
31438;SDS011;18062;48.872;9.220;2023-09-19T08:26:23;1.73;;;1.00;;
31438;SDS011;18062;48.872;9.220;2023-09-19T08:28:51;2.80;;;2.40;;
31438;SDS011;18062;48.872;9.220;2023-09-19T08:31:18;3.10;;;1.10;;
31438;SDS011;18062;48.872;9.220;2023-09-19T08:33:44;1.80;;;1.10;;
31438;SDS011;18062;48.872;9.220;2023-09-19T08:36:14;1.90;;;1.08;;
31438;SDS011;18062;48.872;9.220;2023-09-19T08:38:40;1.33;;;1.13;;
31438;SDS011;18062;48.872;9.220;2023-09-19T08:41:06;1.33;;;1.10;;
31438;SDS011;18062;48.872;9.220;2023-09-19T08:43:33;1.35;;;0.90;;
31438;SDS011;18062;48.872;9.220;2023-09-19T08:46:18;2.55;;;1.15;;
31438;SDS011;18062;48.872;9.220;2023-09-19T08:48:46;1.25;;;1.05;;
31438;SDS011;18062;48.872;9.220;2023-09-19T08:51:27;1.40;;;0.95;;
31438;SDS011;18062;48.872;9.220;2023-09-19T08:54:08;0.90;;;0.90;;
31438;SDS011;18062;48.872;9.220;2023-09-19T08:56:38;1.25;;;1.00;;
31438;SDS011;18062;48.872;9.220;2023-09-19T08:59:05;0.80;;;0.80;;
31438;SDS011;18062;48.872;9.220;2023-09-19T09:01:33;4.68;;;1.10;;
31438;SDS011;18062;48.872;9.220;2023-09-19T09:03:59;0.98;;;0.98;;
31438;SDS011;18062;48.872;9.220;2023-09-19T09:06:26;0.82;;;0.82;;
31438;SDS011;18062;48.872;9.220;2023-09-19T09:08:57;1.58;;;1.23;;
31438;SDS011;18062;48.872;9.220;2023-09-19T09:11:23;3.53;;;0.93;;
31438;SDS011;18062;48.872;9.220;2023-09-19T09:13:50;1.33;;;1.00;;
31438;SDS011;18062;48.872;9.220;2023-09-19T09:16:16;1.33;;;1.10;;
31438;SDS011;18062;48.872;9.220;2023-09-19T09:18:47;1.00;;;0.90;;
31438;SDS011;18062;48.872;9.220;2023-09-19T09:21:17;2.70;;;0.80;;
31438;SDS011;18062;48.872;9.220;2023-09-19T09:23:43;1.67;;;0.93;;
31438;SDS011;18062;48.872;9.220;2023-09-19T09:26:10;1.05;;;0.93;;
31438;SDS011;18062;48.872;9.220;2023-09-19T09:28:38;1.40;;;0.98;;
31438;SDS011;18062;48.872;9.220;2023-09-19T09:31:21;0.85;;;0.85;;
31438;SDS011;18062;48.872;9.220;2023-09-19T09:33:54;1.05;;;0.95;;
31438;SDS011;18062;48.872;9.220;2023-09-19T09:36:36;1.27;;;1.02;;
31438;SDS011;18062;48.872;9.220;2023-09-19T09:39:02;0.80;;;0.80;;
31438;SDS011;18062;48.872;9.220;2023-09-19T09:41:41;1.40;;;0.90;;
31438;SDS011;18062;48.872;9.220;2023-09-19T09:44:15;1.40;;;1.10;;
31438;SDS011;18062;48.872;9.220;2023-09-19T09:46:45;0.98;;;0.90;;
31438;SDS011;18062;48.872;9.220;2023-09-19T09:49:23;1.58;;;0.93;;
31438;SDS011;18062;48.872;9.220;2023-09-19T09:52:08;1.35;;;1.02;;
31438;SDS011;18062;48.872;9.220;2023-09-19T09:54:58;1.67;;;0.90;;
31438;SDS011;18062;48.872;9.220;2023-09-19T09:57:24;1.42;;;0.90;;
31438;SDS011;18062;48.872;9.220;2023-09-19T09:59:51;1.17;;;1.08;;
31438;SDS011;18062;48.872;9.220;2023-09-19T10:02:27;1.25;;;0.98;;
31438;SDS011;18062;48.872;9.220;2023-09-19T10:05:14;1.10;;;1.00;;
31438;SDS011;18062;48.872;9.220;2023-09-19T10:07:50;1.45;;;1.00;;
31438;SDS011;18062;48.872;9.220;2023-09-19T10:13:19;1.20;;;1.10;;
31438;SDS011;18062;48.872;9.220;2023-09-19T10:15:48;0.90;;;0.90;;
31438;SDS011;18062;48.872;9.220;2023-09-19T10:20:49;0.98;;;0.80;;
31438;SDS011;18062;48.872;9.220;2023-09-19T10:23:20;1.75;;;0.73;;
31438;SDS011;18062;48.872;9.220;2023-09-19T10:25:52;1.23;;;0.90;;
31438;SDS011;18062;48.872;9.220;2023-09-19T10:31:20;1.40;;;1.00;;
31438;SDS011;18062;48.872;9.220;2023-09-19T10:33:50;3.70;;;1.02;;
31438;SDS011;18062;48.872;9.220;2023-09-19T10:36:18;1.67;;;1.08;;
31438;SDS011;18062;48.872;9.220;2023-09-19T10:38:44;1.17;;;0.90;;
31438;SDS011;18062;48.872;9.220;2023-09-19T10:41:11;1.45;;;1.10;;
31438;SDS011;18062;48.872;9.220;2023-09-19T10:43:40;1.05;;;1.00;;
31438;SDS011;18062;48.872;9.220;2023-09-19T10:46:11;1.98;;;1.02;;
31438;SDS011;18062;48.872;9.220;2023-09-19T10:48:38;1.20;;;1.10;;
31438;SDS011;18062;48.872;9.220;2023-09-19T10:51:12;1.70;;;1.02;;
31438;SDS011;18062;48.872;9.220;2023-09-19T10:53:51;0.80;;;0.80;;
31438;SDS011;18062;48.872;9.220;2023-09-19T10:56:42;0.82;;;0.82;;
31438;SDS011;18062;48.872;9.220;2023-09-19T11:02:15;1.50;;;0.95;;
31438;SDS011;18062;48.872;9.220;2023-09-19T11:04:30;1.17;;;0.93;;
31438;SDS011;18062;48.872;9.220;2023-09-19T11:07:08;1.10;;;0.85;;
31438;SDS011;18062;48.872;9.220;2023-09-19T11:09:57;1.83;;;1.10;;
31438;SDS011;18062;48.872;9.220;2023-09-19T11:14:56;2.08;;;1.02;;
31438;SDS011;18062;48.872;9.220;2023-09-19T11:17:32;1.10;;;1.00;;
31438;SDS011;18062;48.872;9.220;2023-09-19T11:30:38;2.08;;;1.00;;
31438;SDS011;18062;48.872;9.220;2023-09-19T11:33:20;1.40;;;1.15;;
31438;SDS011;18062;48.872;9.220;2023-09-19T11:43:46;1.70;;;1.10;;
31438;SDS011;18062;48.872;9.220;2023-09-19T11:46:12;1.23;;;0.80;;
31438;SDS011;18062;48.872;9.220;2023-09-19T11:48:42;2.10;;;1.17;;
31438;SDS011;18062;48.872;9.220;2023-09-19T11:51:13;1.00;;;0.80;;
31438;SDS011;18062;48.872;9.220;2023-09-19T11:53:50;1.23;;;0.80;;
31438;SDS011;18062;48.872;9.220;2023-09-19T11:56:17;1.17;;;1.00;;
31438;SDS011;18062;48.872;9.220;2023-09-19T11:58:45;2.00;;;1.17;;
31438;SDS011;18062;48.872;9.220;2023-09-19T12:01:14;1.08;;;0.98;;
31438;SDS011;18062;48.872;9.220;2023-09-19T12:03:45;0.90;;;0.90;;
31438;SDS011;18062;48.872;9.220;2023-09-19T12:06:15;1.60;;;1.13;;
31438;SDS011;18062;48.872;9.220;2023-09-19T12:08:42;1.15;;;1.10;;
31438;SDS011;18062;48.872;9.220;2023-09-19T12:11:15;1.55;;;1.00;;
31438;SDS011;18062;48.872;9.220;2023-09-19T12:13:44;1.85;;;0.90;;
31438;SDS011;18062;48.872;9.220;2023-09-19T12:16:14;1.10;;;1.00;;
31438;SDS011;18062;48.872;9.220;2023-09-19T12:18:41;1.52;;;1.10;;
31438;SDS011;18062;48.872;9.220;2023-09-19T12:21:25;1.33;;;1.20;;
31438;SDS011;18062;48.872;9.220;2023-09-19T12:26:40;1.63;;;1.10;;
31438;SDS011;18062;48.872;9.220;2023-09-19T12:29:16;1.00;;;1.00;;
31438;SDS011;18062;48.872;9.220;2023-09-19T12:31:47;0.93;;;0.90;;
31438;SDS011;18062;48.872;9.220;2023-09-19T12:34:22;1.20;;;1.00;;
31438;SDS011;18062;48.872;9.220;2023-09-19T12:36:48;1.20;;;1.10;;
31438;SDS011;18062;48.872;9.220;2023-09-19T12:39:23;1.40;;;1.10;;
31438;SDS011;18062;48.872;9.220;2023-09-19T12:41:51;1.17;;;1.02;;
31438;SDS011;18062;48.872;9.220;2023-09-19T12:44:18;1.30;;;1.10;;
31438;SDS011;18062;48.872;9.220;2023-09-19T12:46:44;1.40;;;1.10;;
31438;SDS011;18062;48.872;9.220;2023-09-19T12:49:20;0.93;;;0.93;;
31438;SDS011;18062;48.872;9.220;2023-09-19T12:51:47;1.40;;;0.90;;
31438;SDS011;18062;48.872;9.220;2023-09-19T12:54:13;0.77;;;0.77;;
31438;SDS011;18062;48.872;9.220;2023-09-19T12:56:43;0.93;;;0.93;;
31438;SDS011;18062;48.872;9.220;2023-09-19T12:59:10;3.38;;;1.00;;
31438;SDS011;18062;48.872;9.220;2023-09-19T13:01:38;2.58;;;1.00;;
31438;SDS011;18062;48.872;9.220;2023-09-19T13:06:44;1.48;;;0.98;;
31438;SDS011;18062;48.872;9.220;2023-09-19T13:09:11;1.48;;;0.95;;
31438;SDS011;18062;48.872;9.220;2023-09-19T13:11:37;0.95;;;0.95;;
31438;SDS011;18062;48.872;9.220;2023-09-19T13:14:16;1.13;;;1.00;;
31438;SDS011;18062;48.872;9.220;2023-09-19T13:19:36;1.05;;;0.93;;
31438;SDS011;18062;48.872;9.220;2023-09-19T13:22:04;1.38;;;0.90;;
31438;SDS011;18062;48.872;9.220;2023-09-19T13:24:31;1.35;;;1.13;;
31438;SDS011;18062;48.872;9.220;2023-09-19T13:27:00;0.88;;;0.88;;
31438;SDS011;18062;48.872;9.220;2023-09-19T13:29:26;1.60;;;0.82;;
31438;SDS011;18062;48.872;9.220;2023-09-19T13:31:52;1.15;;;1.05;;
31438;SDS011;18062;48.872;9.220;2023-09-19T13:34:18;2.45;;;2.00;;
31438;SDS011;18062;48.872;9.220;2023-09-19T13:36:46;1.75;;;1.10;;
31438;SDS011;18062;48.872;9.220;2023-09-19T13:39:15;1.38;;;1.10;;
31438;SDS011;18062;48.872;9.220;2023-09-19T13:41:43;1.10;;;1.00;;
31438;SDS011;18062;48.872;9.220;2023-09-19T13:44:10;1.45;;;1.00;;
31438;SDS011;18062;48.872;9.220;2023-09-19T13:46:37;1.23;;;1.13;;
31438;SDS011;18062;48.872;9.220;2023-09-19T13:49:05;2.55;;;0.93;;
31438;SDS011;18062;48.872;9.220;2023-09-19T13:51:35;1.45;;;0.90;;
31438;SDS011;18062;48.872;9.220;2023-09-19T13:54:11;1.13;;;1.02;;
31438;SDS011;18062;48.872;9.220;2023-09-19T13:56:39;1.00;;;0.88;;
31438;SDS011;18062;48.872;9.220;2023-09-19T13:59:08;1.05;;;0.98;;
31438;SDS011;18062;48.872;9.220;2023-09-19T14:02:06;0.90;;;0.90;;
31438;SDS011;18062;48.872;9.220;2023-09-19T14:04:38;1.77;;;1.00;;
31438;SDS011;18062;48.872;9.220;2023-09-19T14:07:06;1.02;;;1.00;;
31438;SDS011;18062;48.872;9.220;2023-09-19T14:09:34;1.20;;;1.10;;
31438;SDS011;18062;48.872;9.220;2023-09-19T14:12:00;1.33;;;1.13;;
31438;SDS011;18062;48.872;9.220;2023-09-19T14:14:27;1.17;;;1.08;;
31438;SDS011;18062;48.872;9.220;2023-09-19T14:16:53;1.42;;;0.90;;
31438;SDS011;18062;48.872;9.220;2023-09-19T14:19:21;0.95;;;0.95;;
31438;SDS011;18062;48.872;9.220;2023-09-19T14:21:50;1.25;;;1.08;;
31438;SDS011;18062;48.872;9.220;2023-09-19T14:24:21;1.20;;;1.10;;
31438;SDS011;18062;48.872;9.220;2023-09-19T14:26:48;1.90;;;1.15;;
31438;SDS011;18062;48.872;9.220;2023-09-19T14:29:14;1.50;;;1.15;;
31438;SDS011;18062;48.872;9.220;2023-09-19T14:31:41;1.20;;;1.00;;
31438;SDS011;18062;48.872;9.220;2023-09-19T14:34:07;1.13;;;0.98;;
31438;SDS011;18062;48.872;9.220;2023-09-19T14:36:36;2.10;;;1.45;;
31438;SDS011;18062;48.872;9.220;2023-09-19T14:39:03;1.20;;;1.10;;
31438;SDS011;18062;48.872;9.220;2023-09-19T14:41:29;1.08;;;1.00;;
31438;SDS011;18062;48.872;9.220;2023-09-19T14:43:56;1.23;;;0.90;;
31438;SDS011;18062;48.872;9.220;2023-09-19T14:46:22;1.70;;;1.02;;
31438;SDS011;18062;48.872;9.220;2023-09-19T14:48:50;1.23;;;1.13;;
31438;SDS011;18062;48.872;9.220;2023-09-19T14:51:16;1.38;;;1.00;;
31438;SDS011;18062;48.872;9.220;2023-09-19T14:53:44;1.13;;;1.02;;
31438;SDS011;18062;48.872;9.220;2023-09-19T14:56:10;2.75;;;1.10;;
31438;SDS011;18062;48.872;9.220;2023-09-19T14:58:38;1.38;;;0.90;;
31438;SDS011;18062;48.872;9.220;2023-09-19T15:01:05;2.38;;;1.08;;
31438;SDS011;18062;48.872;9.220;2023-09-19T15:03:31;1.00;;;1.00;;
31438;SDS011;18062;48.872;9.220;2023-09-19T15:06:04;0.85;;;0.85;;
31438;SDS011;18062;48.872;9.220;2023-09-19T15:08:30;1.00;;;0.85;;
31438;SDS011;18062;48.872;9.220;2023-09-19T15:10:56;0.77;;;0.77;;
31438;SDS011;18062;48.872;9.220;2023-09-19T15:13:23;1.40;;;0.98;;
31438;SDS011;18062;48.872;9.220;2023-09-19T15:15:58;1.02;;;0.93;;
31438;SDS011;18062;48.872;9.220;2023-09-19T15:18:24;0.98;;;0.90;;
31438;SDS011;18062;48.872;9.220;2023-09-19T15:20:50;1.10;;;1.00;;
31438;SDS011;18062;48.872;9.220;2023-09-19T15:23:16;1.10;;;1.00;;
31438;SDS011;18062;48.872;9.220;2023-09-19T15:25:50;0.95;;;0.80;;
31438;SDS011;18062;48.872;9.220;2023-09-19T15:28:16;0.93;;;0.93;;
31438;SDS011;18062;48.872;9.220;2023-09-19T15:30:43;1.08;;;0.90;;
31438;SDS011;18062;48.872;9.220;2023-09-19T15:33:10;1.38;;;1.10;;
31438;SDS011;18062;48.872;9.220;2023-09-19T15:35:36;0.90;;;0.90;;
31438;SDS011;18062;48.872;9.220;2023-09-19T15:38:03;1.17;;;1.08;;
31438;SDS011;18062;48.872;9.220;2023-09-19T15:40:29;0.80;;;0.80;;
31438;SDS011;18062;48.872;9.220;2023-09-19T15:42:55;0.75;;;0.75;;
31438;SDS011;18062;48.872;9.220;2023-09-19T15:45:25;0.93;;;0.82;;
31438;SDS011;18062;48.872;9.220;2023-09-19T15:47:51;1.10;;;0.90;;
31438;SDS011;18062;48.872;9.220;2023-09-19T15:50:19;1.38;;;1.00;;
31438;SDS011;18062;48.872;9.220;2023-09-19T15:52:46;1.73;;;1.02;;